Time;durP1;ratioP1;P1;durP2;ratioP2;P2;SDS_P1;SDS_P2;PMS_P1;PMS_P2;Temp;Humidity;BMP_temperature;BMP_pressure;BME280_temperature;BME280_humidity;BME280_pressure;Samples;Min_cycle;Max_cycle;Signal;HPM_P1;HPM_P2
2021/08/15 00:01:23;;;;;;;17.63;15.90;;;19.20;99.90;;;;;;5054765;28;20737;-66
2021/08/15 00:03:49;;;;;;;17.50;15.73;;;19.20;99.90;;;;;;5055410;28;20249;-66
2021/08/15 00:06:15;;;;;;;17.57;15.77;;;19.20;99.90;;;;;;5054632;28;20184;-66
2021/08/15 00:08:41;;;;;;;18.53;15.77;;;19.20;99.90;;;;;;5055294;28;20404;-66
2021/08/15 00:11:07;;;;;;;19.60;16.67;;;19.20;99.90;;;;;;5054614;28;20181;-67
2021/08/15 00:13:33;;;;;;;21.00;16.57;;;19.20;99.90;;;;;;5055250;28;20712;-66
2021/08/15 00:15:58;;;;;;;19.60;17.50;;;19.10;99.90;;;;;;5054820;28;20601;-66
2021/08/15 00:18:25;;;;;;;21.90;17.40;;;19.10;99.90;;;;;;5054320;28;20577;-66
2021/08/15 00:20:50;;;;;;;17.93;16.07;;;19.10;99.90;;;;;;5055015;28;20181;-66
2021/08/15 00:23:16;;;;;;;17.03;15.23;;;19.10;99.90;;;;;;5054334;28;20879;-66
2021/08/15 00:25:42;;;;;;;17.37;15.63;;;19.10;99.90;;;;;;5054810;28;20723;-66
2021/08/15 00:28:08;;;;;;;17.87;16.20;;;19.00;99.90;;;;;;5054269;28;20405;-66
2021/08/15 00:30:34;;;;;;;19.00;17.10;;;19.00;99.90;;;;;;5054810;28;20605;-66
2021/08/15 00:32:59;;;;;;;20.60;17.27;;;19.00;99.90;;;;;;5054851;28;20178;-66
2021/08/15 00:35:25;;;;;;;18.60;16.77;;;19.00;99.90;;;;;;5054097;28;20474;-66
2021/08/15 00:37:51;;;;;;;17.97;15.40;;;19.00;99.90;;;;;;5054726;28;20173;-66
2021/08/15 00:40:18;;;;;;;18.77;15.30;;;19.00;99.90;;;;;;5054064;28;20597;-66
2021/08/15 00:42:43;;;;;;;18.43;16.53;;;18.90;99.90;;;;;;5054329;28;20630;-66
2021/08/15 00:45:10;;;;;;;20.07;16.47;;;18.90;99.90;;;;;;5053699;28;20547;-66
2021/08/15 00:47:36;;;;;;;17.60;15.80;;;18.90;99.90;;;;;;5054582;28;20404;-66
2021/08/15 00:50:03;;;;;;;18.10;16.17;;;18.90;99.90;;;;;;5054839;28;20455;-66
2021/08/15 00:52:29;;;;;;;17.77;15.97;;;18.80;99.90;;;;;;5053823;28;20208;-66
2021/08/15 00:55:02;;;;;;;17.60;15.90;;;18.80;99.90;;;;;;5054063;28;20416;-66
2021/08/15 00:57:34;;;;;;;22.90;17.47;;;18.80;99.90;;;;;;5053720;28;20275;-66
2021/08/15 01:00:10;;;;;;;19.20;17.33;;;18.80;99.90;;;;;;5054496;28;20397;-66
2021/08/15 01:02:41;;;;;;;20.60;16.47;;;18.80;99.90;;;;;;5054386;28;20463;-66
2021/08/15 01:05:08;;;;;;;18.97;16.90;;;18.70;99.90;;;;;;5054120;28;20440;-66
2021/08/15 01:07:34;;;;;;;18.47;16.73;;;18.70;99.90;;;;;;5054006;28;20511;-66
2021/08/15 01:10:01;;;;;;;19.70;17.80;;;18.70;99.90;;;;;;5054048;28;20500;-66
2021/08/15 01:12:27;;;;;;;19.07;17.07;;;18.70;99.90;;;;;;5053479;28;20811;-66
2021/08/15 01:14:57;;;;;;;20.27;17.57;;;18.70;99.90;;;;;;5053769;28;20416;-66
2021/08/15 01:17:26;;;;;;;18.93;17.07;;;18.60;99.90;;;;;;5053366;28;20416;-66
2021/08/15 01:19:55;;;;;;;18.87;16.77;;;18.60;99.90;;;;;;5053692;28;20510;-66
2021/08/15 01:22:26;;;;;;;21.37;16.50;;;18.60;99.90;;;;;;5053254;28;20762;-66
2021/08/15 01:24:52;;;;;;;20.97;16.33;;;18.60;99.90;;;;;;5053850;28;20436;-66
2021/08/15 01:27:20;;;;;;;17.57;15.87;;;18.60;99.90;;;;;;5052830;28;20396;-66
2021/08/15 01:29:47;;;;;;;17.33;15.53;;;18.60;99.90;;;;;;5053679;28;20454;-66
2021/08/15 01:32:21;;;;;;;17.60;15.80;;;18.60;99.90;;;;;;5053052;28;20397;-66
2021/08/15 01:34:47;;;;;;;18.50;16.43;;;18.60;99.90;;;;;;5053584;28;20412;-66
2021/08/15 01:37:13;;;;;;;18.33;16.53;;;18.60;99.90;;;;;;5052890;28;20503;-66
2021/08/15 01:39:42;;;;;;;17.90;16.00;;;18.60;99.90;;;;;;5035718;28;20495;-66
2021/08/15 01:42:09;;;;;;;18.03;16.13;;;18.50;99.90;;;;;;5053403;28;20910;-65
2021/08/15 01:44:34;;;;;;;17.60;15.80;;;18.50;99.90;;;;;;5052728;28;20462;-66
2021/08/15 01:47:00;;;;;;;17.77;15.77;;;18.50;99.90;;;;;;5053408;28;20400;-66
2021/08/15 01:49:26;;;;;;;17.13;15.50;;;18.50;99.90;;;;;;5052317;28;20268;-66
2021/08/15 01:51:51;;;;;;;17.93;16.23;;;18.50;99.90;;;;;;5053292;28;20177;-66
2021/08/15 01:54:17;;;;;;;18.53;16.50;;;18.40;99.90;;;;;;5052373;28;20201;-66
2021/08/15 01:56:43;;;;;;;18.73;16.73;;;18.40;99.90;;;;;;5053173;28;20166;-66
2021/08/15 01:59:08;;;;;;;18.33;16.43;;;18.40;99.90;;;;;;5035361;28;20173;-66
2021/08/15 02:01:34;;;;;;;18.93;17.03;;;18.40;99.90;;;;;;5034519;28;20408;-66
2021/08/15 02:04:00;;;;;;;17.33;15.63;;;18.30;99.90;;;;;;5053032;28;20261;-66
2021/08/15 02:06:26;;;;;;;17.60;15.87;;;18.30;99.90;;;;;;5052403;28;20174;-66
2021/08/15 02:08:52;;;;;;;21.97;16.93;;;18.40;99.90;;;;;;5053001;28;20192;-66
2021/08/15 02:11:19;;;;;;;20.10;16.57;;;18.30;99.90;;;;;;5052373;28;20404;-66
2021/08/15 02:13:46;;;;;;;20.97;15.80;;;18.30;99.90;;;;;;5053036;28;20173;-66
2021/08/15 02:16:13;;;;;;;18.80;16.90;;;18.30;99.90;;;;;;5052563;28;20408;-66
2021/08/15 02:18:39;;;;;;;18.57;16.67;;;18.20;99.90;;;;;;5052770;28;20863;-66
2021/08/15 02:21:05;;;;;;;19.80;16.90;;;18.20;99.90;;;;;;5052110;28;20758;-66
2021/08/15 02:23:31;;;;;;;18.63;16.70;;;18.20;99.90;;;;;;5051864;28;20903;-66
2021/08/15 02:25:57;;;;;;;17.20;15.50;;;18.30;99.90;;;;;;5052665;28;20452;-66
2021/08/15 02:28:23;;;;;;;18.60;15.60;;;18.20;99.90;;;;;;5052154;28;20614;-66
2021/08/15 02:30:48;;;;;;;18.37;15.63;;;18.20;99.90;;;;;;5052662;28;20213;-66
2021/08/15 02:33:15;;;;;;;18.37;16.47;;;18.20;99.90;;;;;;5052355;28;20644;-67
2021/08/15 02:35:40;;;;;;;18.37;16.37;;;18.20;99.90;;;;;;5052700;28;20173;-66
2021/08/15 02:38:06;;;;;;;17.50;15.80;;;18.10;99.90;;;;;;5052602;28;20896;-66
2021/08/15 02:40:32;;;;;;;18.20;16.50;;;18.10;99.90;;;;;;5051668;28;20209;-66
2021/08/15 02:42:58;;;;;;;15.77;14.33;;;18.10;99.90;;;;;;5052508;28;20689;-66
2021/08/15 02:45:24;;;;;;;17.77;16.03;;;18.10;99.90;;;;;;5051818;28;20204;-66
2021/08/15 02:47:50;;;;;;;17.23;15.00;;;18.00;99.90;;;;;;5052401;28;20420;-66
2021/08/15 02:50:17;;;;;;;18.23;15.00;;;18.00;99.90;;;;;;5052044;28;21038;-66
2021/08/15 02:52:43;;;;;;;17.50;15.80;;;18.00;99.90;;;;;;5052386;28;20503;-66
2021/08/15 02:55:10;;;;;;;17.53;15.67;;;18.00;99.90;;;;;;5052623;28;20444;-66
2021/08/15 02:57:36;;;;;;;16.70;15.07;;;18.00;99.90;;;;;;5051719;28;20412;-66
2021/08/15 03:00:07;;;;;;;19.00;17.10;;;17.90;99.90;;;;;;5052366;28;20412;-66
2021/08/15 03:02:33;;;;;;;18.80;15.93;;;17.90;99.90;;;;;;5051789;28;20522;-66
2021/08/15 03:04:59;;;;;;;19.90;15.83;;;17.90;99.90;;;;;;5052223;28;20547;-66
2021/08/15 03:07:26;;;;;;;18.77;16.50;;;17.90;99.90;;;;;;5051660;28;20499;-66
2021/08/15 03:09:52;;;;;;;16.23;14.60;;;17.90;99.90;;;;;;5052253;28;20651;-66
2021/08/15 03:12:17;;;;;;;17.00;15.43;;;17.80;99.90;;;;;;5051651;28;20404;-66
2021/08/15 03:14:43;;;;;;;17.50;15.33;;;17.80;99.90;;;;;;5052347;28;20231;-66
2021/08/15 03:17:09;;;;;;;16.83;15.20;;;17.80;99.90;;;;;;5052403;28;20178;-66
2021/08/15 03:19:36;;;;;;;18.40;16.40;;;17.80;99.90;;;;;;5051669;28;20408;-66
2021/08/15 03:22:03;;;;;;;18.07;16.03;;;17.80;99.90;;;;;;5052164;28;20511;-66
2021/08/15 03:24:29;;;;;;;16.23;14.63;;;17.80;99.90;;;;;;5051489;28;20463;-66
2021/08/15 03:26:54;;;;;;;16.67;15.17;;;17.80;99.90;;;;;;5052146;28;20411;-66
2021/08/15 03:29:20;;;;;;;17.97;16.17;;;17.80;99.90;;;;;;5051508;28;20204;-66
2021/08/15 03:31:46;;;;;;;17.53;15.73;;;17.70;99.90;;;;;;5053240;28;20174;-66
2021/08/15 03:34:13;;;;;;;18.40;16.50;;;17.70;99.90;;;;;;5055917;28;20182;-66
2021/08/15 03:36:39;;;;;;;17.73;16.03;;;17.70;99.90;;;;;;5055197;28;20412;-66
2021/08/15 03:39:06;;;;;;;19.27;17.30;;;17.70;99.90;;;;;;5055804;28;20400;-66
2021/08/15 03:41:31;;;;;;;17.70;15.80;;;17.70;99.90;;;;;;5054914;28;20424;-66
2021/08/15 03:43:57;;;;;;;18.03;15.73;;;17.70;99.90;;;;;;5055290;28;20412;-66
2021/08/15 03:46:24;;;;;;;17.60;15.87;;;17.60;99.90;;;;;;5054818;28;20177;-66
2021/08/15 03:48:50;;;;;;;17.17;15.37;;;17.60;99.90;;;;;;5055236;28;20550;-66
2021/08/15 03:51:15;;;;;;;20.07;16.63;;;17.60;99.90;;;;;;5055738;28;20412;-65
2021/08/15 03:53:41;;;;;;;16.33;14.83;;;17.60;99.90;;;;;;5055008;28;20411;-66
2021/08/15 03:56:07;;;;;;;17.57;15.60;;;17.60;99.90;;;;;;5055491;28;20239;-66
2021/08/15 03:58:32;;;;;;;19.23;17.17;;;17.60;99.90;;;;;;5054778;28;20613;-66
2021/08/15 04:00:58;;;;;;;16.30;14.70;;;17.60;99.90;;;;;;5055450;28;20181;-66
2021/08/15 04:03:24;;;;;;;19.70;16.47;;;17.60;99.90;;;;;;5054787;28;20692;-66
2021/08/15 04:05:50;;;;;;;17.77;15.90;;;17.60;99.90;;;;;;5055276;28;20211;-66
2021/08/15 04:08:15;;;;;;;19.00;17.00;;;17.60;99.90;;;;;;5055222;28;20180;-66
2021/08/15 04:10:42;;;;;;;17.10;15.13;;;17.60;99.90;;;;;;5054337;28;20182;-66
2021/08/15 04:13:08;;;;;;;17.63;15.83;;;17.50;99.90;;;;;;5055185;28;20182;-66
2021/08/15 04:15:34;;;;;;;19.70;17.67;;;17.50;99.90;;;;;;5054573;28;20411;-66
2021/08/15 04:17:59;;;;;;;17.37;15.67;;;17.50;99.90;;;;;;5055123;28;20232;-66
2021/08/15 04:20:25;;;;;;;19.33;16.90;;;17.50;99.90;;;;;;5054610;28;20903;-66
2021/08/15 04:22:51;;;;;;;17.90;16.07;;;17.50;99.90;;;;;;5055162;28;20186;-66
2021/08/15 04:25:17;;;;;;;19.63;17.00;;;17.50;99.90;;;;;;5054993;28;20198;-66
2021/08/15 04:27:43;;;;;;;17.67;15.87;;;17.50;99.90;;;;;;5054357;28;20189;-66
2021/08/15 04:30:10;;;;;;;18.73;16.40;;;17.50;99.90;;;;;;5054845;28;20416;-66
2021/08/15 04:32:36;;;;;;;18.87;15.90;;;17.50;99.90;;;;;;5054234;28;20953;-66
2021/08/15 04:35:03;;;;;;;19.33;17.13;;;17.50;99.90;;;;;;5054765;28;20408;-66
2021/08/15 04:37:29;;;;;;;19.93;17.07;;;17.50;99.90;;;;;;5054194;28;20415;-66
2021/08/15 04:39:55;;;;;;;19.40;17.20;;;17.50;99.90;;;;;;5054634;28;20422;-66
2021/08/15 04:42:21;;;;;;;18.57;16.63;;;17.50;99.90;;;;;;5054477;28;20813;-66
2021/08/15 04:44:47;;;;;;;19.90;17.90;;;17.50;99.90;;;;;;5054625;28;20206;-66
2021/08/15 04:47:13;;;;;;;24.57;17.43;;;17.50;99.90;;;;;;5054603;28;20435;-66
2021/08/15 04:49:39;;;;;;;20.13;18.17;;;17.50;99.90;;;;;;5053493;28;20220;-66
2021/08/15 04:52:05;;;;;;;19.17;17.20;;;17.60;99.90;;;;;;5054241;28;20428;-66
2021/08/15 04:54:31;;;;;;;19.30;16.83;;;17.50;99.90;;;;;;5053880;28;20657;-66
2021/08/15 04:56:58;;;;;;;20.23;17.13;;;17.60;99.90;;;;;;5036657;28;20393;-66
2021/08/15 04:59:25;;;;;;;21.70;18.07;;;17.60;99.90;;;;;;5053729;28;20407;-66
2021/08/15 05:01:51;;;;;;;19.47;17.57;;;17.60;99.90;;;;;;5054309;28;20826;-66
2021/08/15 05:04:17;;;;;;;18.70;16.77;;;17.60;99.90;;;;;;5053944;28;20488;-66
2021/08/15 05:06:42;;;;;;;20.20;18.03;;;17.60;99.90;;;;;;5053330;28;20200;-66
2021/08/15 05:09:08;;;;;;;21.27;18.43;;;17.60;99.90;;;;;;5054166;28;20610;-66
2021/08/15 05:11:34;;;;;;;19.63;17.63;;;17.70;99.90;;;;;;5053556;28;20244;-66
2021/08/15 05:14:00;;;;;;;20.60;18.43;;;17.70;99.90;;;;;;5053946;28;20459;-66
2021/08/15 05:16:26;;;;;;;20.23;18.00;;;17.70;99.90;;;;;;5053440;28;20174;-66
2021/08/15 05:18:52;;;;;;;20.80;18.47;;;17.70;99.90;;;;;;5054009;28;20177;-65
2021/08/15 05:21:17;;;;;;;19.07;17.13;;;17.80;99.90;;;;;;5054354;28;20269;-66
2021/08/15 05:23:43;;;;;;;21.60;19.40;;;17.80;99.90;;;;;;5053280;28;20452;-66
2021/08/15 05:26:09;;;;;;;21.07;18.57;;;17.80;99.90;;;;;;5053820;28;20677;-66
2021/08/15 05:28:35;;;;;;;21.27;19.03;;;17.80;99.90;;;;;;5053217;28;20412;-66
2021/08/15 05:31:01;;;;;;;22.87;20.40;;;17.90;99.90;;;;;;5053752;28;20404;-66
2021/08/15 05:33:27;;;;;;;21.03;18.70;;;17.90;99.90;;;;;;5053064;28;20404;-66
2021/08/15 05:35:53;;;;;;;24.87;21.13;;;18.00;99.90;;;;;;5053742;28;20466;-66
2021/08/15 05:38:18;;;;;;;23.50;21.07;;;18.00;99.90;;;;;;5053604;28;20177;-66
2021/08/15 05:40:44;;;;;;;22.47;19.77;;;18.10;99.90;;;;;;5052981;28;20400;-66
2021/08/15 05:43:10;;;;;;;22.60;20.10;;;18.10;99.90;;;;;;5053263;28;20170;-66
2021/08/15 05:45:37;;;;;;;22.97;20.10;;;18.20;99.90;;;;;;5052872;28;20198;-66
2021/08/15 05:48:07;;;;;;;22.47;20.20;;;18.20;99.90;;;;;;5053643;28;20404;-66
2021/08/15 05:50:33;;;;;;;22.77;20.37;;;18.30;99.90;;;;;;5052922;28;20550;-66
2021/08/15 05:52:59;;;;;;;22.17;19.87;;;18.30;99.90;;;;;;5053298;28;20824;-66
2021/08/15 05:55:25;;;;;;;24.23;20.60;;;18.40;99.90;;;;;;5052520;28;20409;-66
2021/08/15 05:57:50;;;;;;;23.50;19.60;;;18.40;99.90;;;;;;5052285;28;20188;-66
2021/08/15 06:00:16;;;;;;;22.70;20.33;;;18.50;99.90;;;;;;5053199;28;20252;-66
2021/08/15 06:02:43;;;;;;;24.93;20.83;;;18.60;99.90;;;;;;5052561;28;20177;-66
2021/08/15 06:05:13;;;;;;;24.30;21.80;;;18.60;99.90;;;;;;5053071;28;20456;-66
2021/08/15 06:07:40;;;;;;;23.87;20.93;;;18.70;99.90;;;;;;5052485;28;20748;-66
2021/08/15 06:10:07;;;;;;;22.77;20.37;;;18.70;99.90;;;;;;5053044;28;20404;-66
2021/08/15 06:12:34;;;;;;;21.27;19.10;;;18.80;99.90;;;;;;5052383;28;20458;-66
2021/08/15 06:15:02;;;;;;;23.50;20.90;;;18.90;99.90;;;;;;5052814;28;20400;-66
2021/08/15 06:17:28;;;;;;;22.93;20.50;;;18.90;99.90;;;;;;5052443;28;20451;-67
2021/08/15 06:19:53;;;;;;;23.27;20.97;;;19.00;99.90;;;;;;5052570;28;20444;-66
2021/08/15 06:22:19;;;;;;;23.43;21.03;;;19.10;99.90;;;;;;5052834;28;20181;-66
2021/08/15 06:24:45;;;;;;;25.50;20.40;;;19.20;99.90;;;;;;5052157;28;20689;-66
2021/08/15 06:27:11;;;;;;;23.30;20.70;;;19.20;99.90;;;;;;5052740;28;20411;-66
2021/08/15 06:29:37;;;;;;;25.13;20.40;;;19.30;99.90;;;;;;5052451;28;20404;-66
2021/08/15 06:32:03;;;;;;;25.20;20.07;;;19.30;99.90;;;;;;5052756;28;20214;-66
2021/08/15 06:34:29;;;;;;;23.00;20.60;;;19.40;99.90;;;;;;5051803;28;20408;-67
2021/08/15 06:36:55;;;;;;;27.43;20.97;;;19.40;99.90;;;;;;5052726;28;20962;-66
2021/08/15 06:39:20;;;;;;;25.40;21.27;;;19.50;99.90;;;;;;5052686;28;20178;-66
2021/08/15 06:41:46;;;;;;;23.53;21.03;;;19.50;99.90;;;;;;5052067;28;20642;-66
2021/08/15 06:44:12;;;;;;;24.13;21.57;;;19.60;99.90;;;;;;5052510;28;20169;-66
2021/08/15 06:46:37;;;;;;;26.10;20.47;;;19.70;99.90;;;;;;5051930;28;20174;-66
2021/08/15 06:49:03;;;;;;;22.67;20.30;;;19.70;99.90;;;;;;5052220;28;20304;-66
2021/08/15 06:51:29;;;;;;;22.03;18.80;;;19.80;99.90;;;;;;5052437;28;20679;-66
2021/08/15 06:53:55;;;;;;;22.57;18.77;;;19.80;99.90;;;;;;5052201;28;20543;-66
2021/08/15 06:56:21;;;;;;;20.90;18.70;;;19.90;99.90;;;;;;5052478;28;20401;-66
2021/08/15 06:58:46;;;;;;;24.90;19.43;;;20.00;99.90;;;;;;5051854;28;20224;-66
2021/08/15 07:01:12;;;;;;;21.33;19.23;;;20.00;99.90;;;;;;5052415;28;20177;-66
2021/08/15 07:03:38;;;;;;;20.83;18.30;;;20.10;99.90;;;;;;5051771;28;20272;-66
2021/08/15 07:06:03;;;;;;;20.63;18.50;;;20.20;99.90;;;;;;5053993;28;20210;-66
2021/08/15 07:08:29;;;;;;;22.57;20.10;;;20.30;99.90;;;;;;5056373;28;20181;-66
2021/08/15 07:10:55;;;;;;;20.23;18.10;;;20.40;99.90;;;;;;5056117;28;20197;-66
2021/08/15 07:13:22;;;;;;;19.93;17.27;;;20.50;99.90;;;;;;5056358;28;20173;-66
2021/08/15 07:15:52;;;;;;;21.33;19.00;;;20.60;99.90;;;;;;5055773;28;20181;-66
2021/08/15 07:18:19;;;;;;;26.23;18.60;;;20.70;99.90;;;;;;5056216;28;20910;-66
2021/08/15 07:20:46;;;;;;;17.63;15.93;;;20.90;99.90;;;;;;5055586;28;20511;-66
2021/08/15 07:23:12;;;;;;;14.50;12.93;;;20.90;99.90;;;;;;5056264;28;20392;-66
2021/08/15 07:25:38;;;;;;;13.20;11.90;;;21.00;99.90;;;;;;5055386;28;20470;-66
2021/08/15 07:28:04;;;;;;;15.87;13.47;;;21.10;99.90;;;;;;5055690;28;20777;-66
2021/08/15 07:30:33;;;;;;;13.37;11.97;;;21.30;99.90;;;;;;5056095;28;20400;-66
2021/08/15 07:33:02;;;;;;;12.70;11.50;;;21.30;99.90;;;;;;5056027;28;20404;-66
2021/08/15 07:35:31;;;;;;;13.50;11.13;;;21.40;99.90;;;;;;5055972;28;20880;-66
2021/08/15 07:37:58;;;;;;;10.83;9.70;;;21.50;99.90;;;;;;5055907;28;20415;-66
2021/08/15 07:40:24;;;;;;;11.53;10.33;;;21.50;99.90;;;;;;5055766;28;20415;-66
2021/08/15 07:42:51;;;;;;;11.47;10.27;;;21.60;99.90;;;;;;5055266;28;20895;-66
2021/08/15 07:45:22;;;;;;;10.30;9.40;;;21.70;99.90;;;;;;5055738;28;20463;-66
2021/08/15 07:47:47;;;;;;;12.10;10.90;;;21.90;99.90;;;;;;5054931;28;20424;-66
2021/08/15 07:50:14;;;;;;;10.83;9.80;;;22.00;99.90;;;;;;5055712;28;20491;-66
2021/08/15 07:52:40;;;;;;;11.70;9.70;;;22.10;99.90;;;;;;5055100;28;20261;-66
2021/08/15 07:55:07;;;;;;;12.07;10.87;;;22.20;99.90;;;;;;5055592;28;20896;-66
2021/08/15 07:57:33;;;;;;;12.33;9.70;;;22.30;99.90;;;;;;5055543;28;20484;-66
2021/08/15 07:59:59;;;;;;;10.00;9.00;;;22.50;99.90;;;;;;5055503;28;20420;-66
2021/08/15 08:02:25;;;;;;;10.23;9.30;;;22.70;99.90;;;;;;5055416;28;20423;-66
2021/08/15 08:04:51;;;;;;;8.00;7.20;;;22.80;99.90;;;;;;5054659;28;20811;-66
2021/08/15 08:07:22;;;;;;;9.00;7.20;;;22.80;98.50;;;;;;5055652;28;20586;-66
2021/08/15 08:09:49;;;;;;;7.63;7.03;;;22.90;98.70;;;;;;5054749;28;20473;-66
2021/08/15 08:12:17;;;;;;;8.30;7.60;;;23.00;99.00;;;;;;5055273;28;20408;-66
2021/08/15 08:14:43;;;;;;;9.80;8.90;;;23.10;99.20;;;;;;5054354;28;20435;-66
2021/08/15 08:17:09;;;;;;;8.70;7.90;;;23.10;99.10;;;;;;5054242;28;20408;-66
2021/08/15 08:19:35;;;;;;;8.53;7.73;;;23.20;99.30;;;;;;5054634;28;20408;-68
2021/08/15 08:22:02;;;;;;;9.03;8.13;;;23.20;99.30;;;;;;5055061;28;20404;-66
2021/08/15 08:24:27;;;;;;;8.70;6.73;;;23.30;99.70;;;;;;5054982;28;20451;-66
2021/08/15 08:26:53;;;;;;;6.17;5.40;;;23.30;98.20;;;;;;5054408;28;20487;-66
2021/08/15 08:29:19;;;;;;;5.63;5.13;;;23.30;98.40;;;;;;5055039;28;20413;-66
2021/08/15 08:31:45;;;;;;;6.80;5.80;;;23.40;98.10;;;;;;5054301;28;20239;-67
2021/08/15 08:34:11;;;;;;;6.20;5.60;;;23.50;98.10;;;;;;5037185;28;20178;-66
2021/08/15 08:36:37;;;;;;;6.07;5.40;;;23.50;97.60;;;;;;5054250;28;20581;-67
2021/08/15 08:39:03;;;;;;;6.83;6.23;;;23.60;97.60;;;;;;5054731;28;20408;-66
2021/08/15 08:41:30;;;;;;;6.30;5.27;;;23.70;97.50;;;;;;5054755;28;20538;-66
2021/08/15 08:43:56;;;;;;;7.93;5.67;;;23.80;97.70;;;;;;5054060;28;20658;-66
2021/08/15 08:46:24;;;;;;;10.13;5.83;;;23.90;97.00;;;;;;5054485;28;20517;-66
2021/08/15 08:48:51;;;;;;;7.47;4.97;;;24.00;96.90;;;;;;5053587;28;20448;-66
2021/08/15 08:51:21;;;;;;;5.30;4.90;;;24.10;97.20;;;;;;5054559;28;20769;-66
2021/08/15 08:53:51;;;;;;;5.80;5.40;;;24.30;96.80;;;;;;5053904;28;20408;-66
2021/08/15 08:56:18;;;;;;;5.70;5.20;;;24.40;95.80;;;;;;5054153;28;20435;-66
2021/08/15 08:58:44;;;;;;;6.27;5.67;;;24.50;95.50;;;;;;5036039;28;20396;-66
2021/08/15 09:01:13;;;;;;;6.23;5.63;;;24.50;95.30;;;;;;5054065;28;20420;-66
2021/08/15 09:03:42;;;;;;;5.30;5.00;;;24.50;94.80;;;;;;5053720;28;20424;-67
2021/08/15 09:06:20;;;;;;;5.80;5.00;;;24.50;94.70;;;;;;5054197;28;20459;-66
2021/08/15 09:08:45;;;;;;;6.30;5.80;;;24.40;94.70;;;;;;5053609;28;20408;-66
2021/08/15 09:11:23;;;;;;;6.50;5.30;;;24.40;94.80;;;;;;5054179;28;20484;-66
2021/08/15 09:14:10;;;;;;;5.50;5.07;;;24.40;94.50;;;;;;5053520;28;20165;-66
2021/08/15 09:16:55;;;;;;;6.30;5.13;;;24.40;94.10;;;;;;5054180;28;20479;-66
2021/08/15 09:19:33;;;;;;;6.73;6.17;;;24.40;94.60;;;;;;5054282;28;20420;-66
2021/08/15 09:22:25;;;;;;;7.23;5.67;;;24.40;94.50;;;;;;5053079;28;20625;-66
2021/08/15 09:25:05;;;;;;;6.43;5.90;;;24.40;94.50;;;;;;5053248;28;20455;-66
2021/08/15 09:27:54;;;;;;;6.53;6.00;;;24.40;94.80;;;;;;5053959;28;20414;-66
2021/08/15 09:30:33;;;;;;;5.93;5.27;;;24.40;95.10;;;;;;5053823;28;20400;-66
2021/08/15 09:33:06;;;;;;;5.80;5.30;;;24.40;95.00;;;;;;5053259;28;20710;-66
2021/08/15 09:35:34;;;;;;;5.60;4.80;;;24.50;96.00;;;;;;5053763;28;20491;-66
2021/08/15 09:38:16;;;;;;;6.07;5.50;;;24.50;94.60;;;;;;5053067;28;20415;-66
2021/08/15 09:40:50;;;;;;;6.10;5.07;;;24.60;94.80;;;;;;5052956;28;20409;-67
2021/08/15 09:43:25;;;;;;;5.60;5.20;;;24.70;95.60;;;;;;5054047;28;20389;-66
2021/08/15 09:45:58;;;;;;;6.13;5.30;;;24.80;95.30;;;;;;5052840;28;20455;-66
2021/08/15 09:48:37;;;;;;;6.07;5.43;;;24.90;94.90;;;;;;5053377;28;20413;-66
2021/08/15 09:51:16;;;;;;;5.10;4.70;;;25.00;94.10;;;;;;5052880;28;20432;-66
2021/08/15 09:53:54;;;;;;;6.63;5.17;;;24.90;93.70;;;;;;5052721;28;20409;-67
2021/08/15 09:56:38;;;;;;;5.23;4.83;;;25.00;94.00;;;;;;5035492;28;20423;-66
2021/08/15 09:59:18;;;;;;;5.30;4.90;;;25.00;94.00;;;;;;5052396;28;20419;-66
2021/08/15 10:01:46;;;;;;;5.03;4.40;;;25.10;93.80;;;;;;5052520;28;20396;-66
2021/08/15 10:04:12;;;;;;;5.43;4.70;;;25.00;93.20;;;;;;5053104;28;20409;-66
2021/08/15 10:06:40;;;;;;;5.17;4.77;;;25.10;93.10;;;;;;5053068;28;20908;-66
2021/08/15 10:09:06;;;;;;;5.47;4.70;;;25.00;92.50;;;;;;5053070;28;20479;-66
2021/08/15 10:11:33;;;;;;;5.17;4.67;;;25.10;92.70;;;;;;5053146;28;20500;-66
2021/08/15 10:14:04;;;;;;;4.50;4.10;;;25.10;94.00;;;;;;5052122;28;20646;-66
2021/08/15 10:16:33;;;;;;;5.37;4.87;;;25.30;93.10;;;;;;5053389;28;20401;-66
2021/08/15 10:19:02;;;;;;;4.73;4.37;;;25.30;93.00;;;;;;5052263;28;20446;-66
2021/08/15 10:21:29;;;;;;;4.00;3.70;;;25.40;92.60;;;;;;5052850;28;20420;-66
2021/08/15 10:24:07;;;;;;;3.90;3.60;;;25.50;92.70;;;;;;5052249;28;20416;-66
2021/08/15 10:26:36;;;;;;;5.83;5.33;;;25.60;92.20;;;;;;5052819;28;20390;-66
2021/08/15 10:29:02;;;;;;;5.63;4.43;;;25.70;92.00;;;;;;5052185;28;20917;-66
2021/08/15 10:32:06;;;;;;;4.93;4.53;;;25.70;91.70;;;;;;5052842;28;20419;-66
2021/08/15 10:34:50;;;;;;;11.07;9.90;;;25.80;92.30;;;;;;5052622;28;20415;-66
2021/08/15 10:37:25;;;;;;;8.00;6.10;;;25.80;91.70;;;;;;5034791;28;20422;-66
2021/08/15 10:40:02;;;;;;;4.90;4.50;;;25.80;90.90;;;;;;5051680;28;20416;-66
2021/08/15 10:42:39;;;;;;;4.37;3.97;;;25.90;91.10;;;;;;5052539;28;20380;-66
2021/08/15 10:45:09;;;;;;;4.80;4.33;;;25.90;90.30;;;;;;5051500;28;20521;-66
2021/08/15 10:47:37;;;;;;;4.50;4.10;;;25.90;91.20;;;;;;5052732;28;20419;-66
2021/08/15 10:50:08;;;;;;;4.23;3.93;;;25.90;91.40;;;;;;5051829;28;20451;-66
2021/08/15 10:52:38;;;;;;;6.87;4.83;;;26.00;91.20;;;;;;5052513;28;20404;-66
2021/08/15 10:55:16;;;;;;;4.63;4.23;;;26.20;91.50;;;;;;5051857;28;21140;-66
2021/08/15 10:57:46;;;;;;;4.10;3.80;;;26.40;90.90;;;;;;5052173;28;20475;-66
2021/08/15 11:00:30;;;;;;;4.33;3.97;;;26.60;89.10;;;;;;5034071;28;20478;-66
2021/08/15 11:02:57;;;;;;;3.97;3.60;;;26.70;89.00;;;;;;5034053;28;20415;-66
2021/08/15 11:05:36;;;;;;;5.10;4.17;;;26.60;88.60;;;;;;5052314;28;20589;-66
2021/08/15 11:08:03;;;;;;;4.63;4.33;;;26.60;87.50;;;;;;5051672;28;20589;-66
2021/08/15 11:11:18;;;;;;;4.53;3.63;;;26.60;88.30;;;;;;5034545;28;20432;-66
2021/08/15 11:13:44;;;;;;;5.40;4.77;;;26.60;88.80;;;;;;5009215;28;20424;-66
2021/08/15 11:16:28;;;;;;;4.43;4.10;;;26.60;89.20;;;;;;5050917;28;20408;-66
2021/08/15 11:19:09;;;;;;;4.73;4.33;;;26.70;88.10;;;;;;5050973;28;20264;-67
2021/08/15 11:22:02;;;;;;;4.53;4.13;;;26.80;88.80;;;;;;5051931;28;20554;-66
2021/08/15 11:24:29;;;;;;;4.93;4.53;;;26.70;89.40;;;;;;5052180;28;20463;-66
2021/08/15 11:26:56;;;;;;;4.60;4.20;;;26.70;88.90;;;;;;5051579;28;20447;-66
2021/08/15 11:29:22;;;;;;;5.73;5.10;;;26.70;88.90;;;;;;5052193;28;20510;-66
2021/08/15 11:31:50;;;;;;;4.30;4.00;;;26.60;86.90;;;;;;5051575;28;20401;-66
2021/08/15 11:34:16;;;;;;;3.80;3.50;;;26.60;86.30;;;;;;5052075;28;20414;-66
2021/08/15 11:36:42;;;;;;;4.10;3.80;;;26.60;88.30;;;;;;5052077;28;20412;-66
2021/08/15 11:39:08;;;;;;;5.00;4.43;;;26.60;89.20;;;;;;5051397;28;20178;-66
2021/08/15 11:41:35;;;;;;;4.40;3.90;;;26.50;87.70;;;;;;5052019;28;20412;-66
2021/08/15 11:44:02;;;;;;;4.47;4.10;;;26.50;87.20;;;;;;5051130;28;20561;-66
2021/08/15 11:46:28;;;;;;;6.47;4.33;;;26.50;86.80;;;;;;5034094;28;20865;-66
2021/08/15 11:48:53;;;;;;;5.20;3.97;;;26.60;85.10;;;;;;5051194;28;20494;-66
2021/08/15 11:51:19;;;;;;;4.43;4.03;;;26.60;85.30;;;;;;5052145;28;20177;-66
2021/08/15 11:53:49;;;;;;;5.00;4.63;;;26.60;86.10;;;;;;5054601;28;20194;-66
2021/08/15 11:56:19;;;;;;;5.00;4.50;;;26.60;85.60;;;;;;5055564;28;20428;-66
2021/08/15 11:58:54;;;;;;;6.67;4.50;;;26.60;84.40;;;;;;5037730;28;20392;-66
2021/08/15 12:01:22;;;;;;;6.60;4.53;;;26.50;85.80;;;;;;5055369;28;20490;-66
2021/08/15 12:04:02;;;;;;;5.30;4.90;;;26.50;85.50;;;;;;5055470;28;20400;-66
2021/08/15 12:06:29;;;;;;;4.90;4.50;;;26.60;85.90;;;;;;5037744;28;20498;-66
2021/08/15 12:08:54;;;;;;;5.43;4.90;;;26.60;85.80;;;;;;5054718;28;20903;-66
2021/08/15 12:11:34;;;;;;;5.70;5.20;;;26.50;85.70;;;;;;5055362;28;20442;-66
2021/08/15 12:14:12;;;;;;;5.97;4.83;;;26.50;85.70;;;;;;5054362;28;20173;-66
2021/08/15 12:16:40;;;;;;;5.13;4.70;;;26.50;86.80;;;;;;5055193;28;20452;-66
2021/08/15 12:19:06;;;;;;;5.40;5.00;;;26.50;87.20;;;;;;5054325;28;20412;-66
2021/08/15 12:21:33;;;;;;;5.07;4.73;;;26.60;89.30;;;;;;5055080;28;20496;-66
2021/08/15 12:23:58;;;;;;;5.30;4.87;;;26.60;86.50;;;;;;5054416;28;20463;-66
2021/08/15 12:26:25;;;;;;;5.83;5.30;;;26.60;86.80;;;;;;5054963;28;20959;-66
2021/08/15 12:28:56;;;;;;;5.63;4.93;;;26.60;87.30;;;;;;5054283;28;20178;-66
2021/08/15 12:31:25;;;;;;;5.20;4.70;;;26.50;86.40;;;;;;5054894;28;20401;-66
2021/08/15 12:34:12;;;;;;;6.00;4.97;;;26.60;86.30;;;;;;5054450;28;20422;-67
2021/08/15 12:36:42;;;;;;;5.23;4.80;;;26.70;86.00;;;;;;5036757;28;20899;-66
2021/08/15 12:39:08;;;;;;;6.43;5.13;;;26.80;87.50;;;;;;5053875;28;20401;-66